sensor_id;sensor_type;location;lat;lon;timestamp;pressure;altitude;pressure_sealevel;temperature;humidity
37206;BME280;23099;42.636;23.198;2023-05-23T00:00:08;91899.16;;;10.61;100.00
37206;BME280;23099;42.636;23.198;2023-05-23T00:02:35;91899.56;;;10.63;100.00
37206;BME280;23099;42.636;23.198;2023-05-23T00:05:03;91893.44;;;10.62;100.00
37206;BME280;23099;42.636;23.198;2023-05-23T00:07:31;91890.00;;;10.62;100.00
37206;BME280;23099;42.636;23.198;2023-05-23T00:09:58;91890.31;;;10.57;100.00
37206;BME280;23099;42.636;23.198;2023-05-23T00:12:25;91893.69;;;10.54;100.00
37206;BME280;23099;42.636;23.198;2023-05-23T00:14:51;91885.50;;;10.40;100.00
37206;BME280;23099;42.636;23.198;2023-05-23T00:17:20;91889.44;;;10.19;100.00
37206;BME280;23099;42.636;23.198;2023-05-23T00:19:49;91880.13;;;10.10;100.00
37206;BME280;23099;42.636;23.198;2023-05-23T00:22:17;91881.25;;;10.09;100.00
37206;BME280;23099;42.636;23.198;2023-05-23T00:24:43;91878.59;;;10.12;100.00
37206;BME280;23099;42.636;23.198;2023-05-23T00:27:10;91873.31;;;10.16;100.00
37206;BME280;23099;42.636;23.198;2023-05-23T00:29:37;91883.31;;;10.19;100.00
37206;BME280;23099;42.636;23.198;2023-05-23T00:32:04;91875.63;;;10.17;100.00
37206;BME280;23099;42.636;23.198;2023-05-23T00:34:32;91879.44;;;10.16;100.00
37206;BME280;23099;42.636;23.198;2023-05-23T00:37:00;91875.38;;;10.22;100.00
37206;BME280;23099;42.636;23.198;2023-05-23T00:39:27;91880.34;;;10.24;100.00
37206;BME280;23099;42.636;23.198;2023-05-23T00:41:54;91878.03;;;10.22;100.00
37206;BME280;23099;42.636;23.198;2023-05-23T00:44:21;91874.81;;;10.13;100.00
37206;BME280;23099;42.636;23.198;2023-05-23T00:46:50;91877.84;;;10.12;100.00
37206;BME280;23099;42.636;23.198;2023-05-23T00:49:18;91874.38;;;10.11;100.00
37206;BME280;23099;42.636;23.198;2023-05-23T00:51:47;91874.81;;;10.13;100.00
37206;BME280;23099;42.636;23.198;2023-05-23T00:54:15;91876.00;;;10.16;100.00
37206;BME280;23099;42.636;23.198;2023-05-23T00:56:42;91874.44;;;10.15;100.00
37206;BME280;23099;42.636;23.198;2023-05-23T00:59:09;91877.88;;;10.15;100.00
37206;BME280;23099;42.636;23.198;2023-05-23T01:01:37;91875.22;;;10.15;100.00
37206;BME280;23099;42.636;23.198;2023-05-23T01:04:04;91874.88;;;10.17;100.00
37206;BME280;23099;42.636;23.198;2023-05-23T01:06:32;91880.16;;;10.13;100.00
37206;BME280;23099;42.636;23.198;2023-05-23T01:09:00;91881.59;;;10.07;100.00
37206;BME280;23099;42.636;23.198;2023-05-23T01:11:32;91884.16;;;10.00;100.00
37206;BME280;23099;42.636;23.198;2023-05-23T01:14:06;91876.81;;;9.93;100.00
37206;BME280;23099;42.636;23.198;2023-05-23T01:16:42;91882.97;;;9.98;100.00
37206;BME280;23099;42.636;23.198;2023-05-23T01:19:26;91870.03;;;10.00;100.00
37206;BME280;23099;42.636;23.198;2023-05-23T01:22:10;91877.53;;;9.90;100.00
37206;BME280;23099;42.636;23.198;2023-05-23T01:24:48;91870.50;;;9.79;100.00
37206;BME280;23099;42.636;23.198;2023-05-23T01:27:23;91879.22;;;9.76;100.00
37206;BME280;23099;42.636;23.198;2023-05-23T01:29:59;91882.72;;;9.80;100.00
37206;BME280;23099;42.636;23.198;2023-05-23T01:32:27;91879.28;;;9.79;100.00
37206;BME280;23099;42.636;23.198;2023-05-23T01:34:55;91876.25;;;9.81;100.00
37206;BME280;23099;42.636;23.198;2023-05-23T01:37:22;91873.16;;;9.79;100.00
37206;BME280;23099;42.636;23.198;2023-05-23T01:39:49;91874.28;;;9.78;100.00
37206;BME280;23099;42.636;23.198;2023-05-23T01:42:16;91865.94;;;9.79;100.00
37206;BME280;23099;42.636;23.198;2023-05-23T01:44:44;91864.69;;;9.73;100.00
37206;BME280;23099;42.636;23.198;2023-05-23T01:47:14;91865.81;;;9.49;100.00
37206;BME280;23099;42.636;23.198;2023-05-23T01:49:41;91863.88;;;9.46;100.00
37206;BME280;23099;42.636;23.198;2023-05-23T01:52:09;91866.25;;;9.51;100.00
37206;BME280;23099;42.636;23.198;2023-05-23T01:54:36;91860.19;;;9.54;100.00
37206;BME280;23099;42.636;23.198;2023-05-23T01:57:06;91861.97;;;9.47;100.00
37206;BME280;23099;42.636;23.198;2023-05-23T01:59:33;91863.03;;;9.42;100.00
37206;BME280;23099;42.636;23.198;2023-05-23T02:02:00;91857.63;;;9.39;100.00
37206;BME280;23099;42.636;23.198;2023-05-23T02:04:28;91854.16;;;9.35;100.00
37206;BME280;23099;42.636;23.198;2023-05-23T02:06:55;91858.72;;;9.34;100.00
37206;BME280;23099;42.636;23.198;2023-05-23T02:09:22;91863.69;;;9.36;100.00
37206;BME280;23099;42.636;23.198;2023-05-23T02:11:49;91858.75;;;9.38;100.00
37206;BME280;23099;42.636;23.198;2023-05-23T02:14:15;91860.00;;;9.44;100.00
37206;BME280;23099;42.636;23.198;2023-05-23T02:16:42;91859.38;;;9.50;100.00
37206;BME280;23099;42.636;23.198;2023-05-23T02:19:10;91857.50;;;9.54;100.00
37206;BME280;23099;42.636;23.198;2023-05-23T02:21:38;91861.38;;;9.57;100.00
37206;BME280;23099;42.636;23.198;2023-05-23T02:24:05;91863.59;;;9.51;100.00
37206;BME280;23099;42.636;23.198;2023-05-23T02:26:31;91867.03;;;9.52;100.00
37206;BME280;23099;42.636;23.198;2023-05-23T02:28:58;91857.50;;;9.54;100.00
37206;BME280;23099;42.636;23.198;2023-05-23T02:31:25;91865.06;;;9.49;100.00
37206;BME280;23099;42.636;23.198;2023-05-23T02:33:52;91860.91;;;9.51;100.00
37206;BME280;23099;42.636;23.198;2023-05-23T02:36:19;91857.00;;;9.45;100.00
37206;BME280;23099;42.636;23.198;2023-05-23T02:38:47;91851.53;;;9.38;100.00
37206;BME280;23099;42.636;23.198;2023-05-23T02:41:14;91851.47;;;9.35;100.00
37206;BME280;23099;42.636;23.198;2023-05-23T02:43:41;91847.38;;;9.18;100.00
37206;BME280;23099;42.636;23.198;2023-05-23T02:46:07;91840.78;;;9.12;100.00
37206;BME280;23099;42.636;23.198;2023-05-23T02:48:34;91847.50;;;9.02;100.00
37206;BME280;23099;42.636;23.198;2023-05-23T02:51:01;91844.41;;;9.00;100.00
37206;BME280;23099;42.636;23.198;2023-05-23T02:53:27;91845.94;;;9.01;100.00
37206;BME280;23099;42.636;23.198;2023-05-23T02:55:55;91851.84;;;8.91;100.00
37206;BME280;23099;42.636;23.198;2023-05-23T02:58:22;91840.78;;;8.89;100.00
37206;BME280;23099;42.636;23.198;2023-05-23T03:00:49;91851.78;;;8.88;100.00
37206;BME280;23099;42.636;23.198;2023-05-23T03:03:16;91847.56;;;8.86;100.00
37206;BME280;23099;42.636;23.198;2023-05-23T03:05:43;91845.41;;;8.92;100.00
37206;BME280;23099;42.636;23.198;2023-05-23T03:08:09;91851.63;;;9.00;100.00
37206;BME280;23099;42.636;23.198;2023-05-23T03:10:36;91848.19;;;8.99;100.00
37206;BME280;23099;42.636;23.198;2023-05-23T03:13:04;91855.06;;;9.00;100.00
37206;BME280;23099;42.636;23.198;2023-05-23T03:15:31;91853.25;;;9.04;100.00
37206;BME280;23099;42.636;23.198;2023-05-23T03:17:57;91853.25;;;9.04;100.00
37206;BME280;23099;42.636;23.198;2023-05-23T03:20:24;91851.34;;;9.05;100.00
37206;BME280;23099;42.636;23.198;2023-05-23T03:22:51;91855.22;;;9.07;100.00
37206;BME280;23099;42.636;23.198;2023-05-23T03:25:17;91852.13;;;9.05;100.00
37206;BME280;23099;42.636;23.198;2023-05-23T03:27:44;91850.22;;;9.06;100.00
37206;BME280;23099;42.636;23.198;2023-05-23T03:30:12;91852.47;;;9.04;100.00
37206;BME280;23099;42.636;23.198;2023-05-23T03:32:39;91839.34;;;8.95;100.00
37206;BME280;23099;42.636;23.198;2023-05-23T03:35:07;91855.59;;;9.09;100.00
37206;BME280;23099;42.636;23.198;2023-05-23T03:37:34;91857.78;;;9.04;100.00
37206;BME280;23099;42.636;23.198;2023-05-23T03:40:00;91853.59;;;9.03;100.00
37206;BME280;23099;42.636;23.198;2023-05-23T03:42:28;91860.75;;;8.99;100.00
37206;BME280;23099;42.636;23.198;2023-05-23T03:44:54;91859.16;;;8.94;100.00
37206;BME280;23099;42.636;23.198;2023-05-23T03:47:23;91866.66;;;8.89;100.00
37206;BME280;23099;42.636;23.198;2023-05-23T03:49:49;91869.09;;;8.97;100.00
37206;BME280;23099;42.636;23.198;2023-05-23T03:52:16;91863.97;;;9.08;100.00
37206;BME280;23099;42.636;23.198;2023-05-23T03:54:43;91869.78;;;9.13;100.00
37206;BME280;23099;42.636;23.198;2023-05-23T03:57:10;91868.44;;;9.23;100.00
37206;BME280;23099;42.636;23.198;2023-05-23T03:59:36;91849.63;;;9.16;100.00
37206;BME280;23099;42.636;23.198;2023-05-23T04:02:03;91870.16;;;9.35;100.00
37206;BME280;23099;42.636;23.198;2023-05-23T04:04:32;91865.88;;;9.30;100.00
37206;BME280;23099;42.636;23.198;2023-05-23T04:06:59;91860.63;;;9.34;100.00
37206;BME280;23099;42.636;23.198;2023-05-23T04:09:26;91866.75;;;9.38;100.00
37206;BME280;23099;42.636;23.198;2023-05-23T04:11:53;91866.41;;;9.39;100.00
37206;BME280;23099;42.636;23.198;2023-05-23T04:14:20;91861.50;;;9.41;100.00
37206;BME280;23099;42.636;23.198;2023-05-23T04:16:46;91861.13;;;9.43;100.00
37206;BME280;23099;42.636;23.198;2023-05-23T04:19:13;91861.97;;;9.47;100.00
37206;BME280;23099;42.636;23.198;2023-05-23T04:21:41;91862.75;;;9.47;100.00
37206;BME280;23099;42.636;23.198;2023-05-23T04:24:08;91861.63;;;9.48;100.00
37206;BME280;23099;42.636;23.198;2023-05-23T04:26:35;91863.97;;;9.53;100.00
37206;BME280;23099;42.636;23.198;2023-05-23T04:29:02;91864.09;;;9.61;100.00
37206;BME280;23099;42.636;23.198;2023-05-23T04:31:30;91857.31;;;9.67;100.00
37206;BME280;23099;42.636;23.198;2023-05-23T04:33:58;91855.13;;;9.72;100.00
37206;BME280;23099;42.636;23.198;2023-05-23T04:36:25;91853.66;;;9.75;100.00
37206;BME280;23099;42.636;23.198;2023-05-23T04:38:53;91862.53;;;9.82;100.00
37206;BME280;23099;42.636;23.198;2023-05-23T04:41:20;91857.66;;;9.88;100.00
37206;BME280;23099;42.636;23.198;2023-05-23T04:43:47;91856.59;;;9.92;100.00
37206;BME280;23099;42.636;23.198;2023-05-23T04:46:18;91861.97;;;9.96;100.00
37206;BME280;23099;42.636;23.198;2023-05-23T04:48:50;91863.97;;;10.03;100.00
37206;BME280;23099;42.636;23.198;2023-05-23T04:51:17;91854.13;;;10.07;100.00
37206;BME280;23099;42.636;23.198;2023-05-23T04:53:45;91866.03;;;10.13;100.00
37206;BME280;23099;42.636;23.198;2023-05-23T04:56:14;91863.50;;;10.20;100.00
37206;BME280;23099;42.636;23.198;2023-05-23T04:58:42;91867.72;;;10.24;100.00
37206;BME280;23099;42.636;23.198;2023-05-23T05:01:09;91862.88;;;10.30;100.00
37206;BME280;23099;42.636;23.198;2023-05-23T05:03:36;91866.41;;;10.38;100.00
37206;BME280;23099;42.636;23.198;2023-05-23T05:06:03;91867.63;;;10.44;100.00
37206;BME280;23099;42.636;23.198;2023-05-23T05:08:30;91871.88;;;10.48;100.00
37206;BME280;23099;42.636;23.198;2023-05-23T05:10:57;91871.13;;;10.48;100.00
37206;BME280;23099;42.636;23.198;2023-05-23T05:13:25;91878.81;;;10.53;100.00
37206;BME280;23099;42.636;23.198;2023-05-23T05:15:52;91878.09;;;10.56;100.00
37206;BME280;23099;42.636;23.198;2023-05-23T05:18:19;91857.69;;;10.44;100.00
37206;BME280;23099;42.636;23.198;2023-05-23T05:20:45;91879.25;;;10.58;100.00
37206;BME280;23099;42.636;23.198;2023-05-23T05:23:12;91858.16;;;10.50;100.00
37206;BME280;23099;42.636;23.198;2023-05-23T05:25:39;91880.09;;;10.62;100.00
37206;BME280;23099;42.636;23.198;2023-05-23T05:28:05;91877.19;;;10.75;100.00
37206;BME280;23099;42.636;23.198;2023-05-23T05:30:34;91870.38;;;10.81;100.00
37206;BME280;23099;42.636;23.198;2023-05-23T05:33:01;91866.97;;;10.84;100.00
37206;BME280;23099;42.636;23.198;2023-05-23T05:35:29;91869.00;;;10.94;100.00
37206;BME280;23099;42.636;23.198;2023-05-23T05:37:56;91872.16;;;11.03;100.00
37206;BME280;23099;42.636;23.198;2023-05-23T05:40:23;91873.38;;;11.09;100.00
37206;BME280;23099;42.636;23.198;2023-05-23T05:42:50;91875.34;;;11.16;100.00
37206;BME280;23099;42.636;23.198;2023-05-23T05:45:17;91876.59;;;11.25;100.00
37206;BME280;23099;42.636;23.198;2023-05-23T05:47:46;91881.56;;;11.23;100.00
37206;BME280;23099;42.636;23.198;2023-05-23T05:50:16;91883.16;;;11.31;100.00
37206;BME280;23099;42.636;23.198;2023-05-23T05:52:44;91884.00;;;11.39;100.00
37206;BME280;23099;42.636;23.198;2023-05-23T05:55:11;91882.47;;;11.42;100.00
37206;BME280;23099;42.636;23.198;2023-05-23T05:57:38;91884.06;;;11.46;100.00
37206;BME280;23099;42.636;23.198;2023-05-23T06:00:06;91887.16;;;11.48;100.00
37206;BME280;23099;42.636;23.198;2023-05-23T06:02:37;91882.59;;;11.52;100.00
37206;BME280;23099;42.636;23.198;2023-05-23T06:05:05;91891.81;;;11.58;100.00
37206;BME280;23099;42.636;23.198;2023-05-23T06:07:33;91891.13;;;11.65;100.00
37206;BME280;23099;42.636;23.198;2023-05-23T06:10:00;91889.28;;;11.73;100.00
37206;BME280;23099;42.636;23.198;2023-05-23T06:12:27;91877.44;;;11.74;100.00
37206;BME280;23099;42.636;23.198;2023-05-23T06:14:53;91884.44;;;11.85;100.00
37206;BME280;23099;42.636;23.198;2023-05-23T06:17:20;91883.38;;;11.93;100.00
37206;BME280;23099;42.636;23.198;2023-05-23T06:19:47;91888.41;;;12.02;100.00
37206;BME280;23099;42.636;23.198;2023-05-23T06:22:15;91893.09;;;12.16;100.00
37206;BME280;23099;42.636;23.198;2023-05-23T06:24:41;91893.16;;;12.26;100.00
37206;BME280;23099;42.636;23.198;2023-05-23T06:27:08;91891.69;;;12.32;100.00
37206;BME280;23099;42.636;23.198;2023-05-23T06:29:35;91897.91;;;12.47;100.00
37206;BME280;23099;42.636;23.198;2023-05-23T06:32:02;91895.66;;;12.60;100.00
37206;BME280;23099;42.636;23.198;2023-05-23T06:34:28;91899.56;;;12.73;100.00
37206;BME280;23099;42.636;23.198;2023-05-23T06:36:55;91892.75;;;12.83;100.00
37206;BME280;23099;42.636;23.198;2023-05-23T06:39:23;91893.53;;;12.94;100.00
37206;BME280;23099;42.636;23.198;2023-05-23T06:41:50;91898.16;;;13.00;100.00
37206;BME280;23099;42.636;23.198;2023-05-23T06:44:16;91897.44;;;13.10;100.00
37206;BME280;23099;42.636;23.198;2023-05-23T06:46:44;91894.03;;;13.17;100.00
37206;BME280;23099;42.636;23.198;2023-05-23T06:49:11;91894.47;;;13.26;100.00
37206;BME280;23099;42.636;23.198;2023-05-23T06:51:37;91892.56;;;13.37;100.00
37206;BME280;23099;42.636;23.198;2023-05-23T06:54:04;91893.75;;;13.40;100.00
37206;BME280;23099;42.636;23.198;2023-05-23T06:56:32;91893.34;;;13.45;100.00
37206;BME280;23099;42.636;23.198;2023-05-23T06:58:59;91888.00;;;13.52;100.00
37206;BME280;23099;42.636;23.198;2023-05-23T07:01:26;91881.50;;;13.60;100.00
37206;BME280;23099;42.636;23.198;2023-05-23T07:03:52;91885.38;;;13.70;100.00
37206;BME280;23099;42.636;23.198;2023-05-23T07:06:19;91879.97;;;13.77;100.00
37206;BME280;23099;42.636;23.198;2023-05-23T07:08:46;91884.97;;;13.89;100.00
37206;BME280;23099;42.636;23.198;2023-05-23T07:11:12;91881.94;;;13.98;99.93
37206;BME280;23099;42.636;23.198;2023-05-23T07:13:40;91880.78;;;14.09;99.69
37206;BME280;23099;42.636;23.198;2023-05-23T07:16:07;91879.59;;;14.18;100.00
37206;BME280;23099;42.636;23.198;2023-05-23T07:18:34;91875.75;;;14.33;99.06
37206;BME280;23099;42.636;23.198;2023-05-23T07:21:00;91871.53;;;14.46;100.00
37206;BME280;23099;42.636;23.198;2023-05-23T07:23:31;91877.69;;;14.54;99.96
37206;BME280;23099;42.636;23.198;2023-05-23T07:25:58;91875.34;;;14.66;99.44
37206;BME280;23099;42.636;23.198;2023-05-23T07:28:25;91863.78;;;14.76;99.91
37206;BME280;23099;42.636;23.198;2023-05-23T07:30:53;91864.94;;;14.82;99.61
37206;BME280;23099;42.636;23.198;2023-05-23T07:33:21;91868.34;;;14.86;97.82
37206;BME280;23099;42.636;23.198;2023-05-23T07:35:48;91859.50;;;14.93;98.97
37206;BME280;23099;42.636;23.198;2023-05-23T07:38:15;91866.75;;;15.10;98.85
37206;BME280;23099;42.636;23.198;2023-05-23T07:40:41;91869.00;;;15.26;96.95
37206;BME280;23099;42.636;23.198;2023-05-23T07:43:08;91872.78;;;15.39;96.87
37206;BME280;23099;42.636;23.198;2023-05-23T07:45:35;91879.63;;;15.51;95.30
37206;BME280;23099;42.636;23.198;2023-05-23T07:48:03;91877.28;;;15.64;96.03
37206;BME280;23099;42.636;23.198;2023-05-23T07:50:30;91872.56;;;15.78;94.93
37206;BME280;23099;42.636;23.198;2023-05-23T07:52:56;91877.84;;;15.93;95.03
37206;BME280;23099;42.636;23.198;2023-05-23T07:55:23;91874.31;;;16.03;93.06
37206;BME280;23099;42.636;23.198;2023-05-23T07:57:50;91874.28;;;16.06;93.14
37206;BME280;23099;42.636;23.198;2023-05-23T08:00:19;91878.47;;;16.14;91.31
37206;BME280;23099;42.636;23.198;2023-05-23T08:02:46;91873.38;;;16.27;91.26
37206;BME280;23099;42.636;23.198;2023-05-23T08:05:15;91876.75;;;16.35;91.89
37206;BME280;23099;42.636;23.198;2023-05-23T08:07:43;91872.78;;;16.46;92.12
37206;BME280;23099;42.636;23.198;2023-05-23T08:10:10;91862.72;;;16.54;88.93
37206;BME280;23099;42.636;23.198;2023-05-23T08:12:37;91871.13;;;16.63;87.66
37206;BME280;23099;42.636;23.198;2023-05-23T08:15:04;91873.44;;;16.65;86.54
37206;BME280;23099;42.636;23.198;2023-05-23T08:17:31;91875.72;;;16.66;87.25
37206;BME280;23099;42.636;23.198;2023-05-23T08:19:58;91872.91;;;16.77;86.86
37206;BME280;23099;42.636;23.198;2023-05-23T08:22:26;91879.56;;;16.69;84.45
37206;BME280;23099;42.636;23.198;2023-05-23T08:24:53;91874.06;;;16.76;86.55
37206;BME280;23099;42.636;23.198;2023-05-23T08:27:20;91870.53;;;16.86;85.59
37206;BME280;23099;42.636;23.198;2023-05-23T08:29:47;91869.38;;;16.83;86.46
37206;BME280;23099;42.636;23.198;2023-05-23T08:32:14;91873.09;;;16.96;85.69
37206;BME280;23099;42.636;23.198;2023-05-23T08:34:40;91868.44;;;17.01;85.98
37206;BME280;23099;42.636;23.198;2023-05-23T08:37:07;91866.69;;;17.17;86.60
37206;BME280;23099;42.636;23.198;2023-05-23T08:39:35;91867.72;;;17.27;83.54
37206;BME280;23099;42.636;23.198;2023-05-23T08:42:02;91862.69;;;17.29;83.70
37206;BME280;23099;42.636;23.198;2023-05-23T08:44:29;91867.34;;;17.28;81.36
37206;BME280;23099;42.636;23.198;2023-05-23T08:46:57;91865.66;;;17.38;82.23
37206;BME280;23099;42.636;23.198;2023-05-23T08:49:29;91867.09;;;17.46;84.26
37206;BME280;23099;42.636;23.198;2023-05-23T08:52:00;91858.38;;;17.62;83.49
37206;BME280;23099;42.636;23.198;2023-05-23T08:54:27;91861.28;;;17.78;81.57
37206;BME280;23099;42.636;23.198;2023-05-23T08:56:56;91841.91;;;17.83;79.82
37206;BME280;23099;42.636;23.198;2023-05-23T08:59:23;91843.72;;;17.90;78.71
37206;BME280;23099;42.636;23.198;2023-05-23T09:01:53;91854.09;;;17.95;77.77
37206;BME280;23099;42.636;23.198;2023-05-23T09:04:21;91855.53;;;18.03;77.21
37206;BME280;23099;42.636;23.198;2023-05-23T09:06:48;91853.81;;;18.13;77.37
37206;BME280;23099;42.636;23.198;2023-05-23T09:09:15;91854.94;;;18.15;74.12
37206;BME280;23099;42.636;23.198;2023-05-23T09:11:42;91854.53;;;18.17;74.90
37206;BME280;23099;42.636;23.198;2023-05-23T09:14:11;91856.16;;;18.34;75.55
37206;BME280;23099;42.636;23.198;2023-05-23T09:16:39;91854.53;;;18.40;73.28
37206;BME280;23099;42.636;23.198;2023-05-23T09:19:10;91843.00;;;18.36;69.93
37206;BME280;23099;42.636;23.198;2023-05-23T09:21:41;91846.53;;;18.56;70.80
37206;BME280;23099;42.636;23.198;2023-05-23T09:24:08;91850.66;;;18.64;71.74
37206;BME280;23099;42.636;23.198;2023-05-23T09:26:35;91840.84;;;18.74;69.56
37206;BME280;23099;42.636;23.198;2023-05-23T09:29:04;91840.56;;;18.88;68.45
37206;BME280;23099;42.636;23.198;2023-05-23T09:31:32;91838.13;;;18.94;68.84
37206;BME280;23099;42.636;23.198;2023-05-23T09:33:59;91836.75;;;19.05;68.10
37206;BME280;23099;42.636;23.198;2023-05-23T09:36:27;91844.56;;;19.03;64.68
37206;BME280;23099;42.636;23.198;2023-05-23T09:38:54;91834.31;;;19.11;64.72
37206;BME280;23099;42.636;23.198;2023-05-23T09:41:21;91839.09;;;19.23;62.18
37206;BME280;23099;42.636;23.198;2023-05-23T09:43:49;91827.16;;;19.21;59.40
37206;BME280;23099;42.636;23.198;2023-05-23T09:46:17;91826.88;;;19.35;59.71
37206;BME280;23099;42.636;23.198;2023-05-23T09:48:46;91827.66;;;19.55;58.36
37206;BME280;23099;42.636;23.198;2023-05-23T09:51:14;91834.34;;;19.67;57.95
37206;BME280;23099;42.636;23.198;2023-05-23T09:53:40;91827.09;;;19.80;53.93
37206;BME280;23099;42.636;23.198;2023-05-23T09:56:09;91820.81;;;19.83;54.65
37206;BME280;23099;42.636;23.198;2023-05-23T09:58:37;91822.63;;;19.90;52.00
37206;BME280;23099;42.636;23.198;2023-05-23T10:01:06;91824.66;;;20.02;52.30
37206;BME280;23099;42.636;23.198;2023-05-23T10:03:39;91830.59;;;20.13;51.04
37206;BME280;23099;42.636;23.198;2023-05-23T10:06:16;91819.91;;;20.22;47.53
37206;BME280;23099;42.636;23.198;2023-05-23T10:08:53;91809.25;;;20.31;51.48
37206;BME280;23099;42.636;23.198;2023-05-23T10:14:37;91821.94;;;20.34;50.00
37206;BME280;23099;42.636;23.198;2023-05-23T10:17:07;91819.16;;;20.54;47.84
37206;BME280;23099;42.636;23.198;2023-05-23T10:19:42;91822.00;;;20.63;46.29
37206;BME280;23099;42.636;23.198;2023-05-23T10:22:12;91814.19;;;20.81;49.05
37206;BME280;23099;42.636;23.198;2023-05-23T10:24:40;91821.72;;;20.90;46.34
37206;BME280;23099;42.636;23.198;2023-05-23T10:27:08;91807.22;;;21.09;47.67
37206;BME280;23099;42.636;23.198;2023-05-23T10:29:34;91821.47;;;21.13;43.46
37206;BME280;23099;42.636;23.198;2023-05-23T10:32:02;91797.50;;;21.25;45.10
37206;BME280;23099;42.636;23.198;2023-05-23T10:34:35;91805.03;;;21.33;45.67
37206;BME280;23099;42.636;23.198;2023-05-23T10:37:03;91809.59;;;21.36;45.32
37206;BME280;23099;42.636;23.198;2023-05-23T10:39:39;91807.09;;;21.42;42.24
37206;BME280;23099;42.636;23.198;2023-05-23T10:42:12;91802.03;;;21.57;43.79
37206;BME280;23099;42.636;23.198;2023-05-23T10:44:41;91805.63;;;21.79;41.26
37206;BME280;23099;42.636;23.198;2023-05-23T10:47:07;91806.84;;;22.03;45.83
37206;BME280;23099;42.636;23.198;2023-05-23T10:49:38;91801.72;;;22.31;43.67
37206;BME280;23099;42.636;23.198;2023-05-23T10:52:05;91794.09;;;22.26;41.94
37206;BME280;23099;42.636;23.198;2023-05-23T10:54:41;91789.91;;;22.46;38.79
37206;BME280;23099;42.636;23.198;2023-05-23T10:57:09;91790.88;;;22.52;43.03
37206;BME280;23099;42.636;23.198;2023-05-23T10:59:36;91803.91;;;22.70;42.47
37206;BME280;23099;42.636;23.198;2023-05-23T11:02:04;91797.00;;;22.91;43.85
37206;BME280;23099;42.636;23.198;2023-05-23T11:04:34;91795.75;;;23.05;39.26
37206;BME280;23099;42.636;23.198;2023-05-23T11:07:01;91794.19;;;22.82;38.45
37206;BME280;23099;42.636;23.198;2023-05-23T11:09:28;91793.91;;;23.02;42.68
37206;BME280;23099;42.636;23.198;2023-05-23T11:12:00;91793.38;;;22.94;40.79
37206;BME280;23099;42.636;23.198;2023-05-23T11:17:28;91793.84;;;22.80;40.43
37206;BME280;23099;42.636;23.198;2023-05-23T11:19:55;91789.91;;;22.94;38.44
37206;BME280;23099;42.636;23.198;2023-05-23T11:22:26;91752.38;;;22.98;40.88
37206;BME280;23099;42.636;23.198;2023-05-23T11:24:55;91799.31;;;23.36;41.75
37206;BME280;23099;42.636;23.198;2023-05-23T11:27:27;91790.38;;;23.67;38.31
37206;BME280;23099;42.636;23.198;2023-05-23T11:29:58;91782.13;;;23.79;41.74
37206;BME280;23099;42.636;23.198;2023-05-23T11:32:27;91778.81;;;23.84;38.16
37206;BME280;23099;42.636;23.198;2023-05-23T11:34:54;91773.44;;;24.12;39.68
37206;BME280;23099;42.636;23.198;2023-05-23T11:37:21;91771.63;;;24.09;38.23
37206;BME280;23099;42.636;23.198;2023-05-23T11:39:49;91773.63;;;24.17;38.51
37206;BME280;23099;42.636;23.198;2023-05-23T11:42:15;91770.03;;;24.39;38.73
37206;BME280;23099;42.636;23.198;2023-05-23T11:44:47;91773.56;;;23.99;36.95
37206;BME280;23099;42.636;23.198;2023-05-23T11:47:14;91775.25;;;24.06;39.86
37206;BME280;23099;42.636;23.198;2023-05-23T11:49:43;91771.91;;;24.02;38.16
37206;BME280;23099;42.636;23.198;2023-05-23T11:52:10;91770.13;;;24.17;36.63
37206;BME280;23099;42.636;23.198;2023-05-23T11:54:39;91768.97;;;23.56;37.46
37206;BME280;23099;42.636;23.198;2023-05-23T11:57:06;91768.25;;;23.43;42.30
37206;BME280;23099;42.636;23.198;2023-05-23T11:59:33;91768.22;;;23.12;40.00
37206;BME280;23099;42.636;23.198;2023-05-23T12:02:04;91770.94;;;23.34;39.75
37206;BME280;23099;42.636;23.198;2023-05-23T12:04:33;91760.19;;;23.39;38.19
37206;BME280;23099;42.636;23.198;2023-05-23T12:07:04;91747.84;;;23.47;37.67
37206;BME280;23099;42.636;23.198;2023-05-23T12:09:31;91758.69;;;23.38;38.40
37206;BME280;23099;42.636;23.198;2023-05-23T12:11:58;91753.03;;;23.54;38.45
37206;BME280;23099;42.636;23.198;2023-05-23T12:14:27;91753.22;;;23.38;37.01
37206;BME280;23099;42.636;23.198;2023-05-23T12:16:54;91744.16;;;23.41;38.11
37206;BME280;23099;42.636;23.198;2023-05-23T12:19:23;91733.69;;;23.40;40.67
37206;BME280;23099;42.636;23.198;2023-05-23T12:21:50;91743.47;;;23.50;40.02
37206;BME280;23099;42.636;23.198;2023-05-23T12:24:18;91743.09;;;23.39;37.22
37206;BME280;23099;42.636;23.198;2023-05-23T12:26:49;91739.09;;;23.52;37.25
37206;BME280;23099;42.636;23.198;2023-05-23T12:29:20;91739.66;;;23.47;38.60
37206;BME280;23099;42.636;23.198;2023-05-23T12:31:48;91738.88;;;23.16;36.38
37206;BME280;23099;42.636;23.198;2023-05-23T12:34:15;91742.16;;;23.33;40.51
37206;BME280;23099;42.636;23.198;2023-05-23T12:36:43;91738.56;;;23.45;39.04
37206;BME280;23099;42.636;23.198;2023-05-23T12:39:13;91726.78;;;23.48;37.80
37206;BME280;23099;42.636;23.198;2023-05-23T12:41:41;91740.41;;;23.48;37.84
37206;BME280;23099;42.636;23.198;2023-05-23T12:44:09;91731.28;;;23.42;38.64
37206;BME280;23099;42.636;23.198;2023-05-23T12:46:36;91727.75;;;23.32;36.54
37206;BME280;23099;42.636;23.198;2023-05-23T12:49:02;91732.09;;;23.20;36.52
37206;BME280;23099;42.636;23.198;2023-05-23T12:51:29;91725.19;;;23.07;39.31
37206;BME280;23099;42.636;23.198;2023-05-23T12:53:57;91720.16;;;23.27;39.46
37206;BME280;23099;42.636;23.198;2023-05-23T12:56:24;91719.50;;;23.23;35.87